Main page
METAR-TAF:

METAR-TAF

Airports :

Red Oak Municipal Airport

Red Oak, Iowa, United States

latitude: 41-01N, longitude: 095-16W, elevation: 1043 ft

Current weather observation

The report was made 23 minutes ago, at 15:55 UTC
Wind 15 mph from the North/Northwest
Temperature 73°F
Humidity 69%
Pressure 29.95 in. Hg
Visibility: 10 miles
Clear sky

METAR: KRDK 281555Z AUTO 33013KT 10SM CLR 23/17 A2995 RMK AO2

Time: 11:18 (16:18 UTC)


TAF: missing

Weather observations and forecasts of more than 4000 airports (METAR and TAF reports).

The available stations are represented by yellow and red dots on the map.

Hover mouse over dot to see the name of the station.

Then click to see weather observations and forecasts.

To change the map : click on the green buttons with a black cross to zoom in, on the green button with a dash to zoom out, or on the green arrows for adjacent maps.


METAR-TAF: